Time;durP1;ratioP1;P1;durP2;ratioP2;P2;SDS_P1;SDS_P2;PMS_P1;PMS_P2;Temp;Humidity;BMP_temperature;BMP_pressure;BME280_temperature;BME280_humidity;BME280_pressure;Samples;Min_cycle;Max_cycle;Signal;HPM_P1;HPM_P2
2023/01/11 00:01:05;;;;;;;4.63;4.00;;;4.00;67.50;;;;;;6261593;28;20998;-63
2023/01/11 00:04:09;;;;;;;4.20;3.57;;;3.90;67.40;;;;;;6260572;28;20475;-65
2023/01/11 00:07:12;;;;;;;3.63;3.33;;;3.90;67.90;;;;;;6264203;28;20524;-64
2023/01/11 00:10:16;;;;;;;6.00;3.93;;;3.80;68.10;;;;;;6276710;28;20818;-63
2023/01/11 00:13:20;;;;;;;3.70;3.40;;;3.80;68.60;;;;;;6276787;28;20566;-64
2023/01/11 00:16:23;;;;;;;3.53;3.23;;;3.70;69.30;;;;;;6272913;28;20445;-63
2023/01/11 00:19:27;;;;;;;4.50;4.00;;;3.70;69.80;;;;;;6252462;28;20557;-66
2023/01/11 00:22:31;;;;;;;4.57;3.20;;;3.60;69.20;;;;;;6258352;28;20807;-67
2023/01/11 00:25:34;;;;;;;6.90;3.77;;;3.60;71.70;;;;;;6263608;28;20499;-66
2023/01/11 00:28:37;;;;;;;3.97;3.10;;;3.60;73.50;;;;;;6285142;28;20512;-66
2023/01/11 00:31:40;;;;;;;2.60;2.37;;;3.60;71.80;;;;;;6263730;28;20557;-66
2023/01/11 00:34:45;;;;;;;3.83;2.43;;;3.50;71.50;;;;;;6262744;28;20778;-65
2023/01/11 00:37:48;;;;;;;4.63;2.30;;;3.50;71.30;;;;;;6264749;28;20483;-66
2023/01/11 00:40:51;;;;;;;2.73;2.50;;;3.40;71.10;;;;;;6263561;28;20478;-66
2023/01/11 00:50:40;;;;;;;3.63;2.77;;;3.40;72.50;;;;;;6273180;28;21026;-66
2023/01/11 00:53:47;;;;;;;3.90;2.73;;;3.30;73.10;;;;;;6265939;28;20854;-66
2023/01/11 00:56:50;;;;;;;4.13;2.77;;;3.30;72.90;;;;;;6261705;28;20505;-66
2023/01/11 00:59:53;;;;;;;5.87;2.67;;;3.30;73.10;;;;;;6264129;28;20781;-66
2023/01/11 01:02:56;;;;;;;2.60;2.40;;;3.30;73.10;;;;;;6266202;28;20527;-66
2023/01/11 01:06:01;;;;;;;5.10;3.20;;;3.20;73.40;;;;;;6262214;28;20477;-65
2023/01/11 01:09:04;;;;;;;4.90;3.53;;;3.30;73.80;;;;;;6264202;28;20490;-66
2023/01/11 01:12:08;;;;;;;4.57;3.63;;;3.20;74.00;;;;;;6258144;28;20819;-66
2023/01/11 01:15:10;;;;;;;6.30;3.10;;;3.20;74.10;;;;;;6258673;28;20463;-66
2023/01/11 01:18:14;;;;;;;5.87;2.80;;;3.10;74.00;;;;;;6253048;28;20475;-65
2023/01/11 01:21:18;;;;;;;5.93;3.27;;;3.20;74.10;;;;;;6250474;28;20486;-65
2023/01/11 01:24:22;;;;;;;3.47;3.17;;;3.20;74.10;;;;;;6250153;28;20479;-65
2023/01/11 01:27:25;;;;;;;6.33;3.57;;;3.10;74.80;;;;;;6290667;28;20557;-65
2023/01/11 01:30:28;;;;;;;4.17;3.37;;;3.00;75.20;;;;;;6275048;28;20489;-65
2023/01/11 01:33:31;;;;;;;6.90;3.20;;;2.90;76.10;;;;;;6274757;28;20505;-65
2023/01/11 01:36:36;;;;;;;6.20;3.40;;;2.90;76.40;;;;;;6274879;28;20508;-65
2023/01/11 01:39:39;;;;;;;3.30;3.00;;;2.80;76.40;;;;;;6274721;28;20478;-65
2023/01/11 01:42:42;;;;;;;4.43;3.70;;;2.80;77.00;;;;;;6274905;28;20580;-66
2023/01/11 01:45:48;;;;;;;5.00;3.20;;;2.80;77.40;;;;;;6275041;28;20631;-66
2023/01/11 01:48:56;;;;;;;3.90;3.27;;;2.80;77.90;;;;;;6274494;28;20800;-67
2023/01/11 01:52:02;;;;;;;3.17;2.90;;;2.90;78.00;;;;;;6274429;28;20531;-67
2023/01/11 01:55:09;;;;;;;4.00;3.17;;;2.80;78.20;;;;;;6274386;28;20561;-67
2023/01/11 01:58:15;;;;;;;4.90;3.07;;;2.80;78.60;;;;;;6274413;28;20486;-67
2023/01/11 02:04:42;;;;;;;5.10;3.40;;;2.70;79.50;;;;;;6274495;28;20465;-66
2023/01/11 02:07:47;;;;;;;4.73;3.40;;;2.70;80.40;;;;;;6274898;28;20539;-65
2023/01/11 02:10:53;;;;;;;3.37;3.07;;;2.50;80.90;;;;;;6274833;28;20467;-65
2023/01/11 02:13:57;;;;;;;5.03;3.60;;;2.40;81.70;;;;;;6274835;28;20478;-65
2023/01/11 02:17:00;;;;;;;3.10;2.73;;;2.40;82.30;;;;;;6274297;28;20543;-65
2023/01/11 02:20:17;;;;;;;3.17;2.87;;;2.40;83.20;;;;;;6274098;28;20474;-65
2023/01/11 02:23:56;;;;;;;4.03;3.23;;;2.40;83.50;;;;;;6278491;28;20556;-65
2023/01/11 02:27:27;;;;;;;5.23;3.77;;;2.40;83.60;;;;;;6300968;28;20573;-65
2023/01/11 02:30:38;;;;;;;4.53;3.60;;;2.40;83.90;;;;;;6277253;28;20543;-65
2023/01/11 02:33:49;;;;;;;7.80;4.20;;;2.30;84.30;;;;;;6279248;28;20569;-66
2023/01/11 02:37:04;;;;;;;7.20;4.00;;;2.20;84.60;;;;;;6280300;28;20511;-65
2023/01/11 02:40:15;;;;;;;9.37;5.77;;;2.20;85.20;;;;;;6280545;28;20627;-65
2023/01/11 02:46:54;;;;;;;6.97;4.67;;;2.20;86.50;;;;;;6270096;28;20463;-63
2023/01/11 02:50:04;;;;;;;7.23;5.00;;;2.30;86.70;;;;;;6278865;28;20482;-63
2023/01/11 02:53:12;;;;;;;5.60;5.00;;;2.30;87.40;;;;;;6279318;28;20470;-62
2023/01/11 02:56:19;;;;;;;7.33;5.10;;;2.20;87.80;;;;;;6279221;28;20559;-63
2023/01/11 02:59:28;;;;;;;6.27;4.80;;;2.30;88.10;;;;;;6278846;28;20555;-63
2023/01/11 03:02:32;;;;;;;10.50;5.90;;;2.20;88.30;;;;;;6279131;28;20474;-63
2023/01/11 03:05:40;;;;;;;4.80;4.40;;;2.10;88.40;;;;;;6278430;28;20484;-63
2023/01/11 03:09:09;;;;;;;3.90;3.50;;;2.20;89.30;;;;;;6278517;28;20565;-63
2023/01/11 03:16:12;;;;;;;3.90;3.53;;;2.30;89.10;;;;;;6278008;28;20478;-63
2023/01/11 03:19:25;;;;;;;6.37;4.83;;;2.30;89.10;;;;;;6277823;28;20470;-63
2023/01/11 03:22:38;;;;;;;6.67;3.60;;;2.30;89.00;;;;;;6277918;28;20443;-63
2023/01/11 03:25:55;;;;;;;6.30;5.80;;;2.30;89.40;;;;;;6285673;28;20507;-63
2023/01/11 03:29:08;;;;;;;4.63;3.73;;;2.30;89.20;;;;;;6285877;28;20466;-63
2023/01/11 03:32:18;;;;;;;3.93;3.43;;;2.30;89.30;;;;;;6278035;28;20478;-64
2023/01/11 03:35:28;;;;;;;4.70;4.30;;;2.30;89.60;;;;;;6277415;28;20481;-63
2023/01/11 03:38:37;;;;;;;6.00;4.07;;;2.20;89.50;;;;;;6277275;28;21007;-63
2023/01/11 03:41:43;;;;;;;6.00;4.33;;;2.30;89.80;;;;;;6277826;28;20621;-62
2023/01/11 03:44:50;;;;;;;5.67;5.07;;;2.30;90.00;;;;;;6277650;28;20501;-62
2023/01/11 03:47:54;;;;;;;6.50;4.60;;;2.30;90.10;;;;;;6277166;28;20568;-63
2023/01/11 03:51:01;;;;;;;4.70;4.20;;;2.20;90.20;;;;;;6272664;28;20528;-63
2023/01/11 03:54:08;;;;;;;7.40;4.37;;;2.10;90.30;;;;;;6277124;28;20486;-63
2023/01/11 03:57:16;;;;;;;5.47;3.57;;;2.00;90.50;;;;;;6276936;28;20620;-63
2023/01/11 04:00:20;;;;;;;4.13;3.73;;;1.90;90.80;;;;;;6277155;28;20485;-63
2023/01/11 04:03:23;;;;;;;4.37;3.63;;;2.00;91.00;;;;;;6277014;28;20489;-63
2023/01/11 04:06:32;;;;;;;5.17;3.80;;;2.10;91.20;;;;;;6277034;28;20512;-63
2023/01/11 04:09:35;;;;;;;4.70;4.20;;;2.00;91.10;;;;;;6276785;28;20481;-63
2023/01/11 04:12:40;;;;;;;5.27;3.80;;;2.00;91.10;;;;;;6277019;28;20812;-63
2023/01/11 04:15:43;;;;;;;6.77;4.30;;;2.00;91.10;;;;;;6276549;28;20907;-63
2023/01/11 04:18:46;;;;;;;6.07;4.80;;;2.00;91.10;;;;;;6276478;28;20520;-62
2023/01/11 04:21:50;;;;;;;4.80;3.90;;;2.00;91.10;;;;;;6276594;28;20524;-63
2023/01/11 04:24:54;;;;;;;5.40;3.40;;;2.10;91.50;;;;;;6278419;28;20479;-63
2023/01/11 04:27:57;;;;;;;3.93;3.13;;;2.00;90.90;;;;;;6286998;28;20564;-63
2023/01/11 04:31:00;;;;;;;4.90;3.60;;;2.00;91.00;;;;;;6251501;28;21061;-63
2023/01/11 04:34:03;;;;;;;2.87;2.67;;;2.00;91.00;;;;;;6271078;28;20474;-63
2023/01/11 04:37:08;;;;;;;3.73;2.60;;;2.00;90.90;;;;;;6281215;28;20532;-63
2023/01/11 04:40:12;;;;;;;4.17;3.73;;;2.00;90.90;;;;;;6295290;28;20463;-63
2023/01/11 04:43:15;;;;;;;2.50;2.30;;;2.00;90.90;;;;;;6277979;28;20492;-63
2023/01/11 04:46:18;;;;;;;4.20;2.80;;;1.90;91.00;;;;;;6275475;28;20487;-63
2023/01/11 04:49:21;;;;;;;4.93;2.40;;;1.90;90.80;;;;;;6275251;28;20954;-63
2023/01/11 04:52:26;;;;;;;4.43;3.37;;;1.90;90.90;;;;;;6271869;28;20599;-63
2023/01/11 04:55:29;;;;;;;3.67;2.47;;;1.80;91.20;;;;;;6275849;28;20470;-63
2023/01/11 04:58:34;;;;;;;4.97;2.30;;;1.70;91.30;;;;;;6275741;28;20466;-63
2023/01/11 05:01:40;;;;;;;18.30;7.97;;;1.70;91.60;;;;;;6275982;28;20595;-63
2023/01/11 05:04:43;;;;;;;7.00;4.90;;;1.70;91.80;;;;;;6275740;28;20481;-63
2023/01/11 05:07:48;;;;;;;11.03;3.90;;;1.70;91.80;;;;;;6275072;28;20873;-63
2023/01/11 05:10:55;;;;;;;7.20;3.33;;;1.70;91.80;;;;;;6275229;28;20466;-63
2023/01/11 05:13:59;;;;;;;3.90;2.20;;;1.70;91.80;;;;;;6277420;28;20471;-63
2023/01/11 05:17:02;;;;;;;2.50;2.30;;;1.70;91.70;;;;;;6275970;28;20488;-63
2023/01/11 05:20:07;;;;;;;3.10;2.70;;;1.70;91.80;;;;;;6275384;28;20485;-63
2023/01/11 05:23:11;;;;;;;6.33;2.83;;;1.70;91.90;;;;;;6275030;28;20477;-64
2023/01/11 05:26:17;;;;;;;4.30;2.20;;;1.70;92.00;;;;;;6287895;28;20473;-63
2023/01/11 05:29:20;;;;;;;4.87;2.00;;;1.70;91.70;;;;;;6299730;28;20991;-63
2023/01/11 05:32:23;;;;;;;4.60;2.50;;;1.70;91.90;;;;;;6294312;28;20466;-64
2023/01/11 05:35:27;;;;;;;2.80;2.50;;;1.60;91.90;;;;;;6274978;28;20478;-63
2023/01/11 05:38:31;;;;;;;5.50;5.00;;;1.60;92.00;;;;;;6274939;28;20972;-63
2023/01/11 05:41:35;;;;;;;6.93;4.20;;;1.60;92.00;;;;;;6274950;28;20478;-63
2023/01/11 05:48:00;;;;;;;6.97;4.00;;;1.50;92.10;;;;;;6274491;28;20471;-63
2023/01/11 05:51:03;;;;;;;7.17;4.30;;;1.50;92.20;;;;;;6274523;28;20802;-63
2023/01/11 05:54:11;;;;;;;8.00;4.70;;;1.50;92.30;;;;;;6274060;28;20946;-64
2023/01/11 05:57:14;;;;;;;8.93;4.40;;;1.50;92.50;;;;;;6270224;28;20463;-64
2023/01/11 06:00:18;;;;;;;9.27;4.80;;;1.40;92.50;;;;;;6250080;28;20475;-63
2023/01/11 06:03:22;;;;;;;3.07;2.77;;;1.50;92.70;;;;;;6250821;28;20802;-64
2023/01/11 06:06:25;;;;;;;3.80;3.17;;;1.40;92.70;;;;;;6250199;28;20489;-64
2023/01/11 06:09:30;;;;;;;7.90;3.20;;;1.50;92.70;;;;;;6249782;28;20479;-64
2023/01/11 06:12:33;;;;;;;4.23;3.17;;;1.50;92.50;;;;;;6249832;28;20796;-64
2023/01/11 06:15:36;;;;;;;8.07;3.57;;;1.40;92.50;;;;;;6249830;28;20930;-64
2023/01/11 06:18:41;;;;;;;2.83;2.63;;;1.40;92.50;;;;;;6249761;28;20498;-64
2023/01/11 06:21:44;;;;;;;4.20;3.70;;;1.30;92.70;;;;;;6249587;28;20471;-64
2023/01/11 06:24:49;;;;;;;4.33;3.17;;;1.30;92.80;;;;;;6250152;28;20475;-65
2023/01/11 06:27:53;;;;;;;8.70;3.73;;;1.40;93.00;;;;;;6250084;28;20479;-64
2023/01/11 06:30:58;;;;;;;8.50;5.77;;;1.40;93.00;;;;;;6250684;28;20482;-64
2023/01/11 06:34:01;;;;;;;9.90;5.73;;;1.40;92.90;;;;;;6270191;28;20612;-64
2023/01/11 06:37:04;;;;;;;6.87;6.17;;;1.40;92.90;;;;;;6275083;28;20992;-64
2023/01/11 06:40:11;;;;;;;8.40;5.63;;;1.40;92.90;;;;;;6274642;28;21011;-64
2023/01/11 06:43:14;;;;;;;6.30;4.53;;;1.40;93.10;;;;;;6274776;28;20980;-64
2023/01/11 06:46:17;;;;;;;5.37;4.43;;;1.40;93.50;;;;;;6274462;28;20481;-65
2023/01/11 06:49:21;;;;;;;5.97;4.63;;;1.40;94.00;;;;;;6274955;28;21099;-65
2023/01/11 06:52:26;;;;;;;6.03;4.50;;;1.50;94.20;;;;;;6290232;28;20438;-64
2023/01/11 06:55:32;;;;;;;7.80;5.73;;;1.40;94.20;;;;;;6285046;28;20419;-64
2023/01/11 06:58:36;;;;;;;8.57;5.30;;;1.50;93.70;;;;;;6275220;28;20455;-66
2023/01/11 07:01:41;;;;;;;8.73;5.80;;;1.60;93.70;;;;;;6265238;28;20427;-66
2023/01/11 07:04:44;;;;;;;5.07;4.63;;;1.50;93.70;;;;;;6273752;28;20477;-62
2023/01/11 07:07:47;;;;;;;6.20;5.60;;;1.60;93.70;;;;;;6273435;28;20494;-64
2023/01/11 07:10:52;;;;;;;14.23;4.60;;;1.60;93.40;;;;;;6277064;28;20481;-65
2023/01/11 07:13:55;;;;;;;7.57;4.57;;;1.70;93.40;;;;;;6278992;28;20466;-65
2023/01/11 07:16:59;;;;;;;10.60;5.50;;;1.80;93.40;;;;;;6264201;28;20463;-66
2023/01/11 07:20:03;;;;;;;9.47;6.53;;;1.80;93.10;;;;;;6263942;28;20478;-65
2023/01/11 07:23:07;;;;;;;6.03;4.20;;;1.90;93.00;;;;;;6264350;28;20466;-66
2023/01/11 07:26:13;;;;;;;7.30;4.70;;;2.00;92.90;;;;;;6274804;28;20532;-65
2023/01/11 07:29:16;;;;;;;7.20;4.67;;;2.10;92.80;;;;;;6267345;28;20471;-65
2023/01/11 07:32:20;;;;;;;6.17;4.20;;;2.10;92.40;;;;;;6270203;28;20470;-65
2023/01/11 07:35:23;;;;;;;7.60;5.40;;;2.20;92.40;;;;;;6268958;28;20505;-65
2023/01/11 07:38:28;;;;;;;7.83;5.00;;;2.20;92.30;;;;;;6263732;28;20814;-65
2023/01/11 07:44:53;;;;;;;6.23;4.77;;;2.40;92.00;;;;;;6266523;28;20466;-65
2023/01/11 07:47:56;;;;;;;8.90;4.77;;;2.60;91.70;;;;;;6263736;28;20489;-65
2023/01/11 07:51:00;;;;;;;8.23;4.20;;;2.70;91.90;;;;;;6261427;28;20467;-65
2023/01/11 07:54:03;;;;;;;7.90;4.20;;;2.80;91.90;;;;;;6269106;28;20571;-65
2023/01/11 07:57:08;;;;;;;7.60;3.80;;;3.00;91.40;;;;;;6265805;28;20463;-64
2023/01/11 08:00:13;;;;;;;7.07;4.50;;;3.20;91.50;;;;;;6267124;28;21109;-65
2023/01/11 08:03:16;;;;;;;4.20;3.40;;;3.60;91.30;;;;;;6272384;28;20494;-65
2023/01/11 08:06:20;;;;;;;4.67;4.17;;;4.00;91.00;;;;;;6272880;28;20560;-65
2023/01/11 08:09:23;;;;;;;5.63;4.70;;;4.40;90.20;;;;;;6277080;28;20524;-65
2023/01/11 08:15:48;;;;;;;6.03;5.03;;;4.90;88.90;;;;;;6272429;28;20466;-65
2023/01/11 08:18:52;;;;;;;6.37;5.30;;;5.10;87.70;;;;;;6261752;28;20474;-65
2023/01/11 08:21:55;;;;;;;15.07;7.43;;;5.30;86.40;;;;;;6259156;28;20471;-65
2023/01/11 08:24:58;;;;;;;14.07;9.73;;;5.40;85.40;;;;;;6265312;28;20471;-65
2023/01/11 08:28:05;;;;;;;11.20;9.37;;;5.40;84.80;;;;;;6262632;28;20525;-65
2023/01/11 08:31:09;;;;;;;11.50;7.50;;;5.50;84.30;;;;;;6262424;28;20844;-65
2023/01/11 08:34:12;;;;;;;10.83;5.93;;;5.10;83.20;;;;;;6264944;28;20471;-65
2023/01/11 08:37:16;;;;;;;8.03;6.07;;;4.90;83.50;;;;;;6263563;28;20479;-65
2023/01/11 08:40:19;;;;;;;9.17;4.60;;;4.90;84.30;;;;;;6259172;28;20479;-65
2023/01/11 08:43:30;;;;;;;14.10;6.17;;;5.00;84.40;;;;;;6251657;28;20459;-65
2023/01/11 08:46:33;;;;;;;8.23;5.70;;;5.00;85.00;;;;;;6250490;28;20443;-65
2023/01/11 08:49:36;;;;;;;10.67;7.20;;;4.90;85.50;;;;;;6251332;28;20517;-65
2023/01/11 08:52:42;;;;;;;8.77;6.03;;;4.90;85.20;;;;;;6250089;28;20760;-66
2023/01/11 08:55:47;;;;;;;10.40;6.50;;;4.70;85.10;;;;;;6272195;28;20466;-66
2023/01/11 08:58:52;;;;;;;10.23;6.70;;;4.80;85.30;;;;;;6274760;28;20477;-65
2023/01/11 09:01:55;;;;;;;11.20;7.37;;;4.90;85.70;;;;;;6277894;28;20469;-66
2023/01/11 09:04:59;;;;;;;16.77;9.73;;;4.90;86.40;;;;;;6276058;28;20478;-65
2023/01/11 09:08:02;;;;;;;15.17;9.70;;;5.00;87.20;;;;;;6271198;28;20477;-65
2023/01/11 09:11:52;;;;;;;15.43;7.77;;;5.10;87.70;;;;;;6275697;28;20554;-66
2023/01/11 09:14:31;;;;;;;8.23;6.80;;;5.40;88.10;;;;;;6275868;28;20502;-65
2023/01/11 09:17:34;;;;;;;10.07;7.90;;;5.80;87.40;;;;;;6277152;28;20483;-65
2023/01/11 09:20:37;;;;;;;13.37;7.70;;;6.20;85.60;;;;;;6287003;28;20528;-65
2023/01/11 09:23:43;;;;;;;9.90;7.17;;;6.50;84.30;;;;;;6278782;28;20478;-65
2023/01/11 09:26:47;;;;;;;22.33;7.37;;;6.80;83.10;;;;;;6292649;28;20476;-65
2023/01/11 09:29:51;;;;;;;10.10;5.73;;;7.10;81.70;;;;;;6299962;28;20586;-65
2023/01/11 09:32:55;;;;;;;13.20;6.00;;;7.20;79.90;;;;;;6295797;28;20480;-65
2023/01/11 09:36:00;;;;;;;6.30;5.70;;;7.30;79.10;;;;;;6275188;28;20474;-65
2023/01/11 09:39:07;;;;;;;8.23;6.37;;;7.40;78.50;;;;;;6274799;28;20471;-65
2023/01/11 09:42:30;;;;;;;6.40;4.83;;;7.40;77.80;;;;;;6275416;28;20478;-65
2023/01/11 09:45:36;;;;;;;8.33;5.47;;;7.50;76.90;;;;;;6275365;28;20485;-65
2023/01/11 09:48:43;;;;;;;7.00;5.73;;;7.50;76.30;;;;;;6275761;28;20539;-66
2023/01/11 09:51:48;;;;;;;6.87;5.30;;;7.50;75.70;;;;;;6275706;28;20474;-65
2023/01/11 09:54:52;;;;;;;7.40;4.67;;;7.60;75.50;;;;;;6276017;28;20496;-65
2023/01/11 09:58:27;;;;;;;8.23;5.47;;;7.60;75.80;;;;;;6274819;28;20478;-65
2023/01/11 10:01:37;;;;;;;6.60;5.17;;;7.60;75.10;;;;;;6273020;28;20470;-66
2023/01/11 10:04:59;;;;;;;9.97;5.30;;;7.60;75.10;;;;;;6274825;28;20914;-63
2023/01/11 10:08:18;;;;;;;13.10;4.90;;;7.70;74.40;;;;;;6274580;28;20474;-64
2023/01/11 10:11:58;;;;;;;10.30;3.73;;;7.70;74.00;;;;;;6274721;28;20466;-65
2023/01/11 10:15:31;;;;;;;6.20;4.03;;;7.70;73.00;;;;;;6274486;28;20473;-64
2023/01/11 10:19:04;;;;;;;7.13;4.37;;;7.60;72.40;;;;;;6274058;28;20549;-65
2023/01/11 10:22:35;;;;;;;8.50;4.30;;;7.80;71.70;;;;;;6255432;28;20812;-64
2023/01/11 10:25:46;;;;;;;7.40;4.57;;;7.80;71.70;;;;;;6260583;28;20427;-64
2023/01/11 10:29:08;;;;;;;10.47;5.33;;;7.90;70.80;;;;;;6266976;28;20477;-65
2023/01/11 10:32:44;;;;;;;15.80;6.00;;;7.90;70.90;;;;;;6278362;28;20482;-65
2023/01/11 10:36:09;;;;;;;13.33;7.17;;;7.80;71.20;;;;;;6274238;28;20557;-63
2023/01/11 10:39:45;;;;;;;9.07;6.43;;;7.60;71.60;;;;;;6274001;28;20806;-64
2023/01/11 10:42:46;;;;;;;20.13;6.80;;;7.60;72.50;;;;;;6274697;28;20477;-65
2023/01/11 10:45:53;;;;;;;11.37;6.33;;;7.70;72.40;;;;;;6278013;28;20477;-65
2023/01/11 10:49:03;;;;;;;8.43;5.40;;;7.70;72.30;;;;;;6279176;28;20490;-64
2023/01/11 10:52:22;;;;;;;8.20;5.87;;;7.70;71.80;;;;;;6279344;28;20678;-64
2023/01/11 10:55:33;;;;;;;11.20;7.00;;;7.90;72.80;;;;;;6278621;28;20470;-63
2023/01/11 10:59:04;;;;;;;11.87;6.67;;;8.00;71.90;;;;;;6278991;28;20831;-64
2023/01/11 11:02:22;;;;;;;12.50;7.07;;;8.00;72.00;;;;;;6279130;28;20473;-64
2023/01/11 11:05:37;;;;;;;12.27;8.97;;;7.90;72.80;;;;;;6278519;28;20497;-63
2023/01/11 11:08:51;;;;;;;12.27;8.60;;;7.60;74.60;;;;;;6278600;28;20482;-64
2023/01/11 11:11:59;;;;;;;12.47;7.47;;;7.50;75.80;;;;;;6278671;28;20473;-63
2023/01/11 11:15:09;;;;;;;12.50;9.07;;;7.60;75.90;;;;;;6278366;28;20470;-63
2023/01/11 11:18:13;;;;;;;11.10;8.37;;;7.80;75.80;;;;;;6269298;28;20957;-62
2023/01/11 11:21:27;;;;;;;14.23;8.83;;;7.90;75.40;;;;;;6278250;28;20484;-62
2023/01/11 11:24:38;;;;;;;11.57;8.63;;;8.00;75.30;;;;;;6279112;28;20474;-62
2023/01/11 11:27:46;;;;;;;15.53;11.00;;;8.10;74.80;;;;;;6278501;28;20490;-62
2023/01/11 11:30:53;;;;;;;16.10;12.00;;;8.10;74.40;;;;;;6273578;28;20977;-63
2023/01/11 11:33:56;;;;;;;20.23;9.13;;;8.20;73.80;;;;;;6256320;28;20562;-62
2023/01/11 11:37:00;;;;;;;15.93;9.27;;;8.30;73.90;;;;;;6277386;28;20484;-62
2023/01/11 11:40:06;;;;;;;14.53;9.00;;;8.30;73.80;;;;;;6277887;28;20470;-62
2023/01/11 11:43:12;;;;;;;15.63;9.87;;;8.10;74.50;;;;;;6277521;28;20470;-62
2023/01/11 11:46:25;;;;;;;13.33;9.67;;;8.10;73.70;;;;;;6277658;28;20485;-62
2023/01/11 11:49:30;;;;;;;20.30;9.50;;;8.10;73.70;;;;;;6277209;28;20635;-62
2023/01/11 11:52:34;;;;;;;15.27;10.03;;;8.00;73.60;;;;;;6277715;28;20434;-62
2023/01/11 11:55:38;;;;;;;13.90;8.87;;;7.90;74.00;;;;;;6277246;28;20442;-62
2023/01/11 11:58:43;;;;;;;15.60;10.13;;;8.00;74.80;;;;;;6277934;28;20473;-62
2023/01/11 12:01:54;;;;;;;16.30;9.50;;;8.00;74.90;;;;;;6277174;28;20559;-62
2023/01/11 12:04:59;;;;;;;15.93;10.37;;;8.10;75.30;;;;;;6277160;28;20474;-62
2023/01/11 12:08:03;;;;;;;10.90;9.20;;;8.10;75.10;;;;;;6267460;28;20475;-62
2023/01/11 12:11:18;;;;;;;13.77;10.43;;;8.20;75.10;;;;;;6262205;28;20478;-62
2023/01/11 12:14:25;;;;;;;13.27;9.07;;;8.20;75.30;;;;;;6259842;28;20470;-62
2023/01/11 12:17:28;;;;;;;19.17;10.30;;;8.20;75.70;;;;;;6259833;28;20475;-62
2023/01/11 12:20:41;;;;;;;16.87;10.57;;;7.90;75.50;;;;;;6242894;28;20482;-62
2023/01/11 12:23:44;;;;;;;16.43;9.53;;;7.60;76.30;;;;;;6251845;28;20475;-63
2023/01/11 12:27:02;;;;;;;16.20;9.80;;;7.60;77.00;;;;;;6286364;28;20465;-63
2023/01/11 12:30:21;;;;;;;13.70;9.10;;;7.60;76.90;;;;;;6300737;28;20478;-63
2023/01/11 12:33:36;;;;;;;16.80;10.27;;;7.60;76.90;;;;;;6251386;28;21033;-62
2023/01/11 12:36:47;;;;;;;18.40;10.03;;;7.50;77.20;;;;;;6275340;28;20475;-63
2023/01/11 12:39:59;;;;;;;16.00;9.20;;;7.40;77.10;;;;;;6276227;28;20981;-62
2023/01/11 12:43:37;;;;;;;15.50;10.30;;;7.40;77.70;;;;;;6276253;28;20477;-63
2023/01/11 12:46:54;;;;;;;25.87;9.40;;;7.40;78.20;;;;;;6276321;28;20481;-63
2023/01/11 12:50:06;;;;;;;11.53;8.20;;;7.40;77.00;;;;;;6276121;28;20475;-62
2023/01/11 12:53:25;;;;;;;11.03;9.13;;;7.30;77.40;;;;;;6276257;28;20474;-62
2023/01/11 12:56:50;;;;;;;14.03;9.40;;;7.40;77.90;;;;;;6275419;28;20988;-63
2023/01/11 13:00:13;;;;;;;17.57;8.23;;;7.50;77.60;;;;;;6269091;28;20471;-62
2023/01/11 13:03:55;;;;;;;14.03;9.23;;;7.60;77.40;;;;;;6271498;28;20810;-63
2023/01/11 13:07:06;;;;;;;12.83;8.40;;;7.60;81.00;;;;;;6267851;28;20506;-63
2023/01/11 13:10:23;;;;;;;11.43;10.27;;;7.70;80.80;;;;;;6273145;28;20969;-63
2023/01/11 13:13:34;;;;;;;11.97;9.03;;;7.60;78.70;;;;;;6275751;28;20473;-62
2023/01/11 13:16:46;;;;;;;11.73;8.10;;;7.70;77.60;;;;;;6270101;28;20438;-62
2023/01/11 13:20:05;;;;;;;10.00;7.80;;;7.70;76.70;;;;;;6265044;28;20474;-63
2023/01/11 13:23:14;;;;;;;18.90;8.77;;;7.70;76.40;;;;;;6271444;28;20954;-63
2023/01/11 13:26:23;;;;;;;16.47;8.90;;;7.70;76.20;;;;;;6288329;28;20484;-62
2023/01/11 13:29:30;;;;;;;12.60;8.90;;;7.70;76.60;;;;;;6300576;28;20474;-63
2023/01/11 13:32:37;;;;;;;13.60;7.97;;;7.70;76.80;;;;;;6300057;28;20465;-61
2023/01/11 13:35:45;;;;;;;17.17;8.90;;;7.70;76.50;;;;;;6291758;28;20476;-62
2023/01/11 13:38:54;;;;;;;21.70;9.63;;;7.70;77.00;;;;;;6281350;28;20476;-61
2023/01/11 13:42:02;;;;;;;11.30;8.53;;;7.80;76.90;;;;;;6274847;28;20808;-63
2023/01/11 13:45:14;;;;;;;15.47;9.10;;;7.80;76.60;;;;;;6274918;28;20466;-63
2023/01/11 13:48:25;;;;;;;14.60;7.63;;;7.80;76.00;;;;;;6274628;28;20532;-63
2023/01/11 13:51:36;;;;;;;13.13;7.30;;;7.90;76.10;;;;;;6274563;28;20784;-62
2023/01/11 13:54:46;;;;;;;11.80;7.83;;;7.90;76.10;;;;;;6274195;28;20478;-63
2023/01/11 13:57:55;;;;;;;10.40;7.77;;;8.00;76.10;;;;;;6274248;28;20993;-63
2023/01/11 14:01:06;;;;;;;9.87;8.43;;;8.20;75.80;;;;;;6273488;28;20467;-63
2023/01/11 14:04:20;;;;;;;13.13;8.67;;;8.20;74.40;;;;;;6260336;28;20470;-62
2023/01/11 14:07:35;;;;;;;14.43;8.47;;;8.20;73.80;;;;;;6264372;28;20479;-62
2023/01/11 14:10:51;;;;;;;13.60;7.70;;;8.30;73.90;;;;;;6272115;28;20950;-63
2023/01/11 14:14:18;;;;;;;8.97;7.37;;;8.40;73.60;;;;;;6260469;28;20462;-62
2023/01/11 14:17:35;;;;;;;17.07;8.43;;;8.30;72.20;;;;;;6263470;28;20783;-62
2023/01/11 14:20:45;;;;;;;16.87;7.77;;;8.20;72.90;;;;;;6253825;28;20790;-62
2023/01/11 14:23:51;;;;;;;13.57;8.40;;;8.30;72.80;;;;;;6255640;28;20463;-63
2023/01/11 14:27:21;;;;;;;12.10;8.03;;;8.20;72.80;;;;;;6274148;28;20488;-61
2023/01/11 14:31:00;;;;;;;11.80;7.30;;;7.90;74.00;;;;;;6266192;28;20970;-61
2023/01/11 14:34:45;;;;;;;11.70;7.70;;;7.80;75.10;;;;;;6268827;28;20470;-61
2023/01/11 14:38:27;;;;;;;7.43;5.83;;;7.50;76.30;;;;;;6266619;28;20793;-61
2023/01/11 14:42:00;;;;;;;8.27;5.93;;;7.20;75.20;;;;;;6260663;28;20482;-61
2023/01/11 14:45:15;;;;;;;10.30;5.60;;;7.00;76.10;;;;;;6267525;28;20980;-61
2023/01/11 14:48:29;;;;;;;15.70;6.87;;;7.00;76.40;;;;;;6271682;28;20481;-63
2023/01/11 14:51:40;;;;;;;6.97;5.70;;;6.90;76.50;;;;;;6278856;28;20486;-61
2023/01/11 14:54:45;;;;;;;12.70;6.20;;;6.90;76.50;;;;;;6279143;28;20485;-62
2023/01/11 14:58:05;;;;;;;13.10;5.93;;;6.80;76.50;;;;;;6279346;28;20469;-62
2023/01/11 15:01:10;;;;;;;7.43;6.00;;;6.80;76.90;;;;;;6278661;28;20470;-61
2023/01/11 15:04:22;;;;;;;13.30;5.87;;;6.80;76.90;;;;;;6278733;28;20787;-61
2023/01/11 15:07:33;;;;;;;6.43;5.60;;;6.80;76.60;;;;;;6278459;28;20474;-61
2023/01/11 15:10:47;;;;;;;8.20;5.20;;;6.80;76.50;;;;;;6278845;28;20488;-61
2023/01/11 15:13:56;;;;;;;8.03;5.90;;;6.80;76.30;;;;;;6278536;28;20467;-63
2023/01/11 15:20:24;;;;;;;6.93;4.60;;;6.80;76.30;;;;;;6272810;28;20493;-62
2023/01/11 15:23:30;;;;;;;15.10;5.93;;;6.80;75.90;;;;;;6278388;28;20465;-61
2023/01/11 15:26:48;;;;;;;6.97;4.27;;;6.80;75.90;;;;;;6282005;28;20478;-62
2023/01/11 15:29:56;;;;;;;8.37;6.23;;;6.70;75.80;;;;;;6277640;28;20478;-62
2023/01/11 15:33:43;;;;;;;7.87;5.00;;;6.70;75.70;;;;;;6267579;28;20969;-61
2023/01/11 15:37:16;;;;;;;8.37;5.70;;;6.70;75.60;;;;;;6293428;28;20474;-61
2023/01/11 15:40:22;;;;;;;8.63;5.00;;;6.70;75.90;;;;;;6274357;28;20470;-63
2023/01/11 15:43:53;;;;;;;7.70;5.67;;;6.70;76.00;;;;;;6264279;28;20475;-62
2023/01/11 15:47:19;;;;;;;10.30;4.77;;;6.70;76.20;;;;;;6247863;28;20525;-62
2023/01/11 15:50:58;;;;;;;12.23;6.30;;;6.60;76.40;;;;;;6261888;28;20952;-62
2023/01/11 15:54:34;;;;;;;7.50;6.23;;;6.60;76.80;;;;;;6262503;28;20467;-63
2023/01/11 15:58:13;;;;;;;7.17;5.00;;;6.60;77.00;;;;;;6248170;28;20464;-63
2023/01/11 16:01:24;;;;;;;10.03;7.13;;;6.60;77.40;;;;;;6241620;28;20472;-63
2023/01/11 16:04:31;;;;;;;11.20;7.53;;;6.60;77.80;;;;;;6277411;28;20474;-63
2023/01/11 16:07:45;;;;;;;12.00;7.50;;;6.60;78.00;;;;;;6276956;28;20476;-64
2023/01/11 16:11:01;;;;;;;16.70;7.03;;;6.60;78.40;;;;;;6276730;28;20850;-64
2023/01/11 16:14:26;;;;;;;15.30;8.63;;;6.60;79.00;;;;;;6276937;28;20466;-63
2023/01/11 16:17:30;;;;;;;12.10;5.97;;;6.60;79.40;;;;;;6277032;28;20586;-64
2023/01/11 16:20:36;;;;;;;12.23;6.67;;;6.50;79.60;;;;;;6276706;28;20536;-64
2023/01/11 16:23:40;;;;;;;13.23;7.77;;;6.50;80.10;;;;;;6276910;28;20474;-64
2023/01/11 16:26:44;;;;;;;13.70;7.60;;;6.60;80.50;;;;;;6293269;28;20469;-64
2023/01/11 16:29:50;;;;;;;11.73;7.50;;;6.60;80.40;;;;;;6301685;28;20488;-64
2023/01/11 16:32:53;;;;;;;10.97;7.50;;;6.50;80.40;;;;;;6301481;28;20553;-64
2023/01/11 16:36:12;;;;;;;9.43;7.37;;;6.50;80.20;;;;;;6285580;28;20552;-64
2023/01/11 16:39:20;;;;;;;10.80;7.00;;;6.50;80.70;;;;;;6276457;28;20680;-64
2023/01/11 16:42:26;;;;;;;11.40;6.97;;;6.40;80.60;;;;;;6275785;28;20788;-64
2023/01/11 16:45:41;;;;;;;13.53;8.17;;;6.50;81.20;;;;;;6276304;28;20502;-64
2023/01/11 16:48:45;;;;;;;11.67;8.00;;;6.50;81.40;;;;;;6275738;28;20841;-65
2023/01/11 16:51:49;;;;;;;12.50;9.20;;;6.60;81.40;;;;;;6276374;28;20486;-65
2023/01/11 16:54:54;;;;;;;16.80;9.23;;;6.60;81.80;;;;;;6269759;28;20477;-64
2023/01/11 16:57:59;;;;;;;17.40;8.60;;;6.70;81.80;;;;;;6273650;28;20484;-63
2023/01/11 17:01:05;;;;;;;15.13;9.27;;;6.70;81.60;;;;;;6253934;28;20472;-65
2023/01/11 17:04:28;;;;;;;15.87;10.47;;;6.70;81.50;;;;;;6255845;28;20611;-63